• Join FlightAware (Why Join?)
  • Login
  • US Flag 
Trick or treat! (Boo!!) 
04:13PM EDT


 

Airport Tracker/Info


-or-


 

Live Flight TrackerFlight Track Log ✈ N91FR ✈ 26-Oct-2013 ✈ KACV - KMFR

Flight Track Log - Related Links

Times and Time Zones

All times are in EDT time to prevent confusion due to time zone crossing. See the N91FR flight status page for this flight to view local times or setup timezone preferences in your user account.

Time Position Orientation Groundspeed Altitude Reporting Facility
EDT Latitude Longitude Course Direction KTS MPH feet Rate Location/Type
02:06PM 40.9908 -124.1178 51° Northeast 111 128 800  Level Seattle Center
02:07PM 40.9817 -124.1472 248° West 88 101 1,500 600 Climbing Seattle Center
02:08PM 40.9767 -124.1850 260° West 96 110 2,100 600 Climbing Seattle Center
02:09PM 40.9761 -124.2236 269° West 101 116 2,800 600 Climbing Seattle Center
02:10PM 40.9986 -124.2350 339° North 106 122 3,400 540 Climbing Seattle Center
02:11PM 41.1613 -123.9499 41° Northeast  Level Estimated
02:11PM 41.0283 -124.2361 358° North 105 121 4,000  Level Seattle Center
02:12PM 41.1843 -123.9122 51° Northeast  Level FlightAware Approximate
02:12PM 41.0514 -124.2183 30° Northeast 114 131 4,600  Level Seattle Center
02:13PM 41.0711 -124.1925 45° Northeast 106 122 5,100 540 Climbing Seattle Center
02:14PM 41.0919 -124.1653 45° Northeast 104 120 5,800 540 Climbing Seattle Center
02:15PM 41.1128 -124.1375 45° Northeast 105 121 6,300 540 Climbing Seattle Center
02:17PM 41.1328 -124.1083 48° Northeast 105 121 7,000 600 Climbing Seattle Center
02:18PM 41.1536 -124.0797 46° Northeast 106 122 7,600 540 Climbing Seattle Center
02:19PM 41.1739 -124.0506 47° Northeast 107 123 8,200 540 Climbing Seattle Center
02:20PM 41.1950 -124.0222 45° Northeast 108 124 8,700 540 Climbing Seattle Center
02:21PM 41.2169 -123.9914 47° Northeast 111 128 9,300 600 Climbing Seattle Center
02:22PM 41.2431 -123.9539 47° Northeast 114 131 10,000 300 Climbing Seattle Center
02:23PM 41.2678 -123.9206 45° Northeast 118 136 10,000  Level Seattle Center
02:24PM 41.2953 -123.8833 45° Northeast 128 147 10,000  Level Seattle Center
02:25PM 41.3214 -123.8450 48° Northeast 136 157 10,000  Level Seattle Center
02:26PM 41.3481 -123.8089 45° Northeast 137 158 10,000  Level Seattle Center
02:27PM 41.3731 -123.7728 47° Northeast 135 155 10,000  Level Seattle Center
02:28PM 41.3986 -123.7367 47° Northeast 134 154 10,000  Level Seattle Center
02:29PM 41.4247 -123.7000 46° Northeast 135 155 10,000  Level Seattle Center
02:30PM 41.4500 -123.6622 48° Northeast 136 157 10,000  Level Seattle Center
02:31PM 41.4761 -123.6258 46° Northeast 137 158 10,000  Level Seattle Center
02:32PM 41.5028 -123.5897 45° Northeast 137 158 10,000  Level Seattle Center
02:33PM 41.5289 -123.5497 49° Northeast 139 160 10,000  Level Seattle Center
02:34PM 41.5581 -123.5131 43° Northeast 141 162 10,000  Level Seattle Center
02:35PM 41.5844 -123.4764 46° Northeast 141 162 10,000  Level Seattle Center
02:36PM 41.6164 -123.4311 47° Northeast 140 161 10,000  Level Seattle Center
02:37PM 41.6417 -123.3936 48° Northeast 138 159 10,000  Level Seattle Center
02:38PM 41.6681 -123.3558 47° Northeast 138 159 10,000  Level Seattle Center
02:39PM 41.6947 -123.3183 46° Northeast 139 160 10,000  Level Seattle Center
02:40PM 41.7208 -123.2803 47° Northeast 139 160 10,000  Level Seattle Center
02:41PM 41.7475 -123.2425 47° Northeast 139 160 10,000  Level Seattle Center
02:42PM 41.7739 -123.2042 47° Northeast 140 161 10,000  Level Seattle Center
02:43PM 41.8014 -123.1661 46° Northeast 142 163 10,000  Level Seattle Center
02:44PM 41.8278 -123.1283 47° Northeast 139 160 10,000  Level Seattle Center
02:45PM 41.8544 -123.0897 47° Northeast 140 161 10,000  Level Seattle Center
02:46PM 41.8811 -123.0519 47° Northeast 139 160 10,000  Level Seattle Center
02:47PM 41.9053 -123.0147 49° Northeast 135 155 10,000  Level Seattle Center
02:48PM 41.9322 -122.9775 46° Northeast 137 158 10,000  Level Seattle Center
02:49PM 41.9633 -122.9314 48° Northeast 138 159 10,000  Level Seattle Center
02:50PM 41.9900 -122.8944 46° Northeast 137 158 10,000  Level Seattle Center
02:51PM 42.0167 -122.8564 47° Northeast 140 161 10,000  Level Seattle Center
02:52PM 42.0419 -122.8189 48° Northeast 136 157 10,000  Level Seattle Center
02:53PM 42.0683 -122.7811 47° Northeast 138 159 10,000 -300 Level Seattle Center
02:54PM 42.0964 -122.7397 48° Northeast 148 170 9,400 -600 Descending Seattle Center
02:55PM 42.1361 -122.7486 351° North 149 171 8,800 -660 Descending Seattle Center
02:56PM 42.1747 -122.7672 340° North 146 168 8,100 -720 Descending Seattle Center
02:57PM 42.2114 -122.7864 339° North 142 163 7,400 -660 Descending Seattle Center
02:58PM 42.2458 -122.8058 337° Northwest 134 154 6,800 -840 Descending Seattle Center
02:59PM 42.2769 -122.8211 340° North 121 139 5,800 -1,020 Descending Seattle Center
03:00PM 42.3028 -122.8356 338° Northwest 104 120 4,800 -1,140 Descending Seattle Center
03:01PM 42.3319 -122.8517 338° Northwest 95 109 3,500 -1,500 Descending Seattle Center
03:02PM 42.3544 -122.8633 339° North 90 104 1,800 -1,140 Descending Seattle Center
03:03PM 42.3744 -122.8717 343° North 83 96 1,300 -540 Descending Seattle Center
03:05PM 42.3742 -122.8735 North  Level Estimated
03:12PM 42.3742 -122.8735 North  Level Estimated